Oceana Nas /Apollo Soucek Field/ Station
KNTU : now visible

Airfield :











YOU CAN JOIN US ON...

 
LOGIN :

Register | Disclaimer

   EN    FR    IT 

 









Legend :    VFR   Marginal VFR   IFR   Intensive IFR   Very Intensive IFR
Visi :
Ceiling :
>= 8 km
>= 3000ft
5 to 8 km
1000 to 3000 ft
1500m to 5 km
500 to 1000 ft
800 to 1500m
200 to 500 ft
< 800m
< 200 ft
Symbols :   Thunderstorms  Fog  Heavy snow  Heavy precipitations  Wind > 20 kt






- Airport Elevation : 23 ft


KNTU - Oceana Nas /Apollo Soucek Field/ Station

CURRENT METAR :
  • 121756Z 05006KT 10SM OVC034 06/M02 A3065 RMK AO2 SLP382 T00561017 10056 20011 58020

EXPIRED METARs :
  • 121656Z 08008KT 10SM OVC035 06/M03 A3069 RMK AO2 SLP395 T00561028
  • 121556Z 05008KT 10SM BKN032 BKN250 04/M02 A3070 RMK AO2 SLP399 T00441017

TAF COR TAF KNTU
Valid from the 12 at 15:00 until the 13 at 15:00 UTC


1215/1315 06010G18KT 9999 BKN030 BKN250 QNH3051INS
FM122200 05010KT 9999 BKN020 BKN250 QNH3040INS
FM130600 08010KT 6000 BR BKN005 OVC020 QNH3020INS
TEMPO 1309/1315 1600 BR OVC005 T05/1219Z T02/1309Z COR 1551 FN20008



MET'MAP, your aeronautical weather chart ! - Copyright ORBIFLY December 2007 - Disclaimer

ORBIFLY MET'MAP TEAM :

Programming & Development : Alexandra Zaïnal
Concept & original design : Baudouin d'Aumeries
Assistance for programming : Marc-Olivier Méhu
Technical & hardware support : Manuel Goepfert

Contact : metmap@orbifly.com




SOURCES & CREDITS :

   NOAA       Earth
Advisory